Time;durP1;ratioP1;P1;durP2;ratioP2;P2;SDS_P1;SDS_P2;PMS_P1;PMS_P2;Temp;Humidity;BMP_temperature;BMP_pressure;BME280_temperature;BME280_humidity;BME280_pressure;Samples;Min_cycle;Max_cycle;Signal;HPM_P1;HPM_P2
2023/09/30 00:00:08;;;;;;;12.63;4.22;;;12.30;99.90;;;;;;4826977;29;20127;-81
2023/09/30 00:02:33;;;;;;;12.18;4.03;;;12.30;99.90;;;;;;4798280;29;20050;-81
2023/09/30 00:04:59;;;;;;;12.35;3.10;;;12.30;99.90;;;;;;4827350;29;20057;-80
2023/09/30 00:07:26;;;;;;;12.75;3.72;;;12.70;99.90;;;;;;4825184;29;20410;-82
2023/09/30 00:09:52;;;;;;;11.57;3.17;;;12.20;99.90;;;;;;4824666;29;20055;-81
2023/09/30 00:12:18;;;;;;;9.75;3.20;;;12.40;99.90;;;;;;4797925;29;20506;-85
2023/09/30 00:14:43;;;;;;;10.43;2.97;;;12.20;99.90;;;;;;4796949;29;20352;-81
2023/09/30 00:17:09;;;;;;;11.35;3.85;;;13.00;99.90;;;;;;4840796;29;20142;-83
2023/09/30 00:19:35;;;;;;;13.43;3.63;;;12.20;99.90;;;;;;4824489;29;20051;-80
2023/09/30 00:22:01;;;;;;;14.43;4.15;;;12.70;99.90;;;;;;4825890;29;20039;-79
2023/09/30 00:24:27;;;;;;;15.60;3.47;;;12.30;99.90;;;;;;4828061;29;20612;-82
2023/09/30 00:26:56;;;;;;;13.80;3.15;;;12.30;99.90;;;;;;4825755;29;20061;-83
2023/09/30 00:29:24;;;;;;;16.08;3.30;;;12.30;99.90;;;;;;4794443;29;20059;-80
2023/09/30 00:31:50;;;;;;;10.32;3.03;;;12.40;99.90;;;;;;4808721;29;20094;-82
2023/09/30 00:34:15;;;;;;;10.82;3.22;;;12.30;99.90;;;;;;4797617;29;20073;-84
2023/09/30 00:36:41;;;;;;;15.88;3.03;;;12.30;99.90;;;;;;4827566;29;20093;-81
2023/09/30 00:39:08;;;;;;;10.50;3.38;;;12.30;99.90;;;;;;4797517;29;20111;-81
2023/09/30 00:41:34;;;;;;;8.32;3.10;;;13.30;99.90;;;;;;4798928;29;20133;-79
2023/09/30 00:44:00;;;;;;;13.75;3.67;;;12.30;99.90;;;;;;4830755;29;20085;-80
2023/09/30 00:46:31;;;;;;;10.15;3.03;;;13.00;99.90;;;;;;4797562;29;20057;-80
2023/09/30 00:48:59;;;;;;;12.57;3.33;;;12.30;99.90;;;;;;4812063;29;20091;-81
2023/09/30 00:51:26;;;;;;;14.80;3.25;;;12.30;99.90;;;;;;4838990;29;20054;-81
2023/09/30 00:53:52;;;;;;;10.63;2.95;;;12.30;99.90;;;;;;4839655;29;20464;-80
2023/09/30 00:56:19;;;;;;;13.18;3.28;;;12.30;99.90;;;;;;4794383;29;20087;-80
2023/09/30 00:58:51;;;;;;;10.07;2.58;;;12.30;99.90;;;;;;4793622;29;20141;-81
2023/09/30 01:01:18;;;;;;;12.20;3.90;;;12.20;99.90;;;;;;4827278;29;20043;-81
2023/09/30 01:03:45;;;;;;;13.20;3.15;;;13.30;99.90;;;;;;4827161;29;20206;-80
2023/09/30 01:06:11;;;;;;;11.40;3.13;;;12.40;99.90;;;;;;4794692;29;20054;-82
2023/09/30 01:08:37;;;;;;;14.60;4.60;;;11.30;99.90;;;;;;4793846;29;20039;-81
2023/09/30 01:11:02;;;;;;;9.80;3.50;;;14.00;99.90;;;;;;4824781;29;20137;-79
2023/09/30 01:13:38;;;;;;;13.50;3.50;;;12.20;99.90;;;;;;4827485;29;20396;-81
2023/09/30 01:16:05;;;;;;;12.57;3.38;;;12.20;99.90;;;;;;4810812;29;20062;-81
2023/09/30 01:18:31;;;;;;;11.18;3.42;;;12.20;99.90;;;;;;4823206;29;20104;-80
2023/09/30 01:20:58;;;;;;;12.82;3.63;;;12.20;99.90;;;;;;4824380;29;20047;-80
2023/09/30 01:23:24;;;;;;;8.18;3.30;;;12.20;99.90;;;;;;4827162;29;20085;-80
2023/09/30 01:25:49;;;;;;;11.55;3.58;;;12.20;99.90;;;;;;4825905;29;20102;-81
2023/09/30 01:28:16;;;;;;;13.30;4.03;;;12.20;99.90;;;;;;4824619;29;20078;-83
2023/09/30 01:30:43;;;;;;;12.13;3.15;;;12.30;99.90;;;;;;4823842;29;20046;-82
2023/09/30 01:33:09;;;;;;;13.95;3.92;;;13.00;99.90;;;;;;4824739;29;20057;-81
2023/09/30 01:35:34;;;;;;;9.13;2.95;;;12.20;99.90;;;;;;4826948;29;20054;-81
2023/09/30 01:38:00;;;;;;;12.70;3.47;;;12.30;99.90;;;;;;4825805;29;20062;-80
2023/09/30 01:40:28;;;;;;;9.38;3.20;;;12.20;99.90;;;;;;4823352;29;20059;-81
2023/09/30 01:42:55;;;;;;;10.32;3.50;;;12.20;99.90;;;;;;4808156;29;20054;-81
2023/09/30 01:45:21;;;;;;;12.07;3.67;;;12.80;99.90;;;;;;4795971;29;20079;-81
2023/09/30 01:47:51;;;;;;;18.02;4.20;;;12.30;99.90;;;;;;4811336;29;20051;-83
2023/09/30 01:50:22;;;;;;;11.82;3.90;;;12.50;99.90;;;;;;4823189;29;20046;-80
2023/09/30 01:52:49;;;;;;;11.80;3.88;;;12.30;99.90;;;;;;4823334;29;20395;-83
2023/09/30 01:55:14;;;;;;;10.00;3.67;;;12.30;99.90;;;;;;4794584;29;20069;-82
2023/09/30 01:57:41;;;;;;;12.60;3.50;;;12.30;99.90;;;;;;4811509;29;20058;-81
2023/09/30 02:00:12;;;;;;;12.18;3.08;;;12.30;99.90;;;;;;4808616;29;20042;-81
2023/09/30 02:02:38;;;;;;;14.20;3.70;;;12.30;99.90;;;;;;4823643;29;20491;-81
2023/09/30 02:05:04;;;;;;;7.93;3.10;;;13.70;99.90;;;;;;4824184;29;20095;-81
2023/09/30 02:07:30;;;;;;;8.07;2.97;;;12.40;99.90;;;;;;4810075;29;20137;-81
2023/09/30 02:09:57;;;;;;;8.32;2.92;;;12.80;99.90;;;;;;4795873;29;20047;-81
2023/09/30 02:12:23;;;;;;;12.35;2.72;;;12.40;99.90;;;;;;4823148;29;20050;-83
2023/09/30 02:14:48;;;;;;;10.00;3.33;;;12.40;99.90;;;;;;4821755;29;20061;-84
2023/09/30 02:17:14;;;;;;;13.25;3.10;;;12.40;99.90;;;;;;4825845;29;20057;-80
2023/09/30 02:19:40;;;;;;;15.32;3.40;;;12.40;99.90;;;;;;4825987;29;20050;-82
2023/09/30 02:22:09;;;;;;;6.28;2.65;;;12.40;99.90;;;;;;4793980;29;20046;-80
2023/09/30 02:24:34;;;;;;;12.75;3.20;;;12.40;99.90;;;;;;4807940;29;20078;-81
2023/09/30 02:27:00;;;;;;;15.25;3.90;;;12.40;99.90;;;;;;4840070;29;20078;-79
2023/09/30 02:29:26;;;;;;;11.27;2.88;;;12.40;99.90;;;;;;4795346;29;20058;-83
2023/09/30 02:31:52;;;;;;;14.35;3.13;;;12.40;99.90;;;;;;4825477;29;20043;-83
2023/09/30 02:34:18;;;;;;;10.45;3.42;;;13.20;99.90;;;;;;4793080;29;20050;-81
2023/09/30 02:36:44;;;;;;;14.73;3.33;;;12.40;99.90;;;;;;4821076;29;20058;-81
2023/09/30 02:39:09;;;;;;;14.10;3.15;;;12.50;99.90;;;;;;4824232;29;20133;-82
2023/09/30 02:41:37;;;;;;;15.73;3.35;;;12.50;99.90;;;;;;4807490;29;20057;-80
2023/09/30 02:44:03;;;;;;;10.95;2.88;;;12.50;99.90;;;;;;4823049;29;20058;-79
2023/09/30 02:46:29;;;;;;;7.32;2.97;;;12.40;99.90;;;;;;4826120;29;20125;-80
2023/09/30 02:48:55;;;;;;;12.75;3.63;;;12.40;99.90;;;;;;4825579;29;20565;-80
2023/09/30 02:51:20;;;;;;;12.50;2.65;;;12.50;99.90;;;;;;4821978;29;20050;-80
2023/09/30 02:53:58;;;;;;;10.45;3.25;;;12.40;99.90;;;;;;4821540;29;20047;-80
2023/09/30 02:56:30;;;;;;;10.23;2.78;;;12.50;99.90;;;;;;4825681;29;20093;-81
2023/09/30 02:58:59;;;;;;;12.80;3.20;;;12.50;99.90;;;;;;4839180;29;20050;-80
2023/09/30 03:01:26;;;;;;;8.68;3.00;;;12.50;99.90;;;;;;4807607;29;20082;-80
2023/09/30 03:03:52;;;;;;;7.10;2.55;;;12.50;99.90;;;;;;4822014;29;20055;-81
2023/09/30 03:06:18;;;;;;;9.10;2.90;;;12.50;99.90;;;;;;4825514;29;20499;-81
2023/09/30 03:08:44;;;;;;;11.75;3.15;;;12.50;99.90;;;;;;4810546;29;20547;-81
2023/09/30 03:11:10;;;;;;;8.63;2.40;;;12.50;99.90;;;;;;4792657;29;20043;-80
2023/09/30 03:13:37;;;;;;;10.82;2.92;;;12.50;99.90;;;;;;4822687;29;20166;-82
2023/09/30 03:16:03;;;;;;;7.00;2.40;;;12.50;99.90;;;;;;4823534;29;20061;-82
2023/09/30 03:18:30;;;;;;;11.10;2.90;;;12.50;99.90;;;;;;4810201;29;20047;-80
2023/09/30 03:21:00;;;;;;;11.35;2.38;;;12.50;99.90;;;;;;4810265;29;20046;-82
2023/09/30 03:23:46;;;;;;;9.65;2.50;;;12.50;99.90;;;;;;4822736;29;20408;-81
2023/09/30 03:26:15;;;;;;;8.70;2.58;;;12.50;99.90;;;;;;4795407;29;20134;-81
2023/09/30 03:28:41;;;;;;;10.93;2.92;;;12.50;99.90;;;;;;4795641;29;20042;-81
2023/09/30 03:31:07;;;;;;;9.07;2.67;;;12.50;99.90;;;;;;4794051;29;20126;-80
2023/09/30 03:33:34;;;;;;;10.35;2.70;;;12.40;99.90;;;;;;4791069;29;20133;-81
2023/09/30 03:36:00;;;;;;;9.30;2.60;;;12.50;99.90;;;;;;4837379;29;20042;-81
2023/09/30 03:38:26;;;;;;;11.40;2.58;;;12.40;99.90;;;;;;4795751;29;20475;-80
2023/09/30 03:40:54;;;;;;;6.85;2.85;;;12.40;99.90;;;;;;4795001;29;20054;-81
2023/09/30 03:43:23;;;;;;;7.88;2.72;;;12.50;99.90;;;;;;4810536;29;20047;-81
2023/09/30 03:45:50;;;;;;;10.57;3.42;;;12.40;99.90;;;;;;4825153;29;20051;-83
2023/09/30 03:48:16;;;;;;;7.82;2.47;;;12.40;99.90;;;;;;4828362;29;20134;-82
2023/09/30 03:50:42;;;;;;;10.02;3.17;;;12.40;99.90;;;;;;4798244;29;20161;-80
2023/09/30 03:53:09;;;;;;;10.25;3.17;;;12.40;99.90;;;;;;4796439;29;20046;-81
2023/09/30 03:55:38;;;;;;;9.98;3.20;;;12.40;99.90;;;;;;4825458;29;20483;-82
2023/09/30 03:58:05;;;;;;;13.98;3.17;;;12.40;99.90;;;;;;4811390;29;20058;-80
2023/09/30 04:00:31;;;;;;;12.80;2.80;;;12.40;99.90;;;;;;4812618;29;20154;-80
2023/09/30 04:02:58;;;;;;;11.95;3.13;;;12.40;99.90;;;;;;4828482;29;20206;-80
2023/09/30 04:05:29;;;;;;;9.35;3.33;;;12.40;99.90;;;;;;4813874;29;20050;-80
2023/09/30 04:07:56;;;;;;;7.47;2.80;;;12.40;99.90;;;;;;4812475;29;20183;-82
2023/09/30 04:10:25;;;;;;;13.23;3.47;;;12.40;99.90;;;;;;4826156;29;20050;-80
2023/09/30 04:12:52;;;;;;;9.70;3.20;;;12.40;99.90;;;;;;4825331;29;20156;-82
2023/09/30 04:15:18;;;;;;;8.55;3.25;;;12.40;99.90;;;;;;4827093;29;20138;-82
2023/09/30 04:17:44;;;;;;;9.65;3.15;;;12.40;99.90;;;;;;4828344;29;20086;-81
2023/09/30 04:20:23;;;;;;;9.52;3.13;;;13.50;99.90;;;;;;4819209;29;20199;-82
2023/09/30 04:22:49;;;;;;;6.43;3.13;;;13.60;99.90;;;;;;4823981;29;20508;-80
2023/09/30 04:25:16;;;;;;;11.30;3.50;;;12.40;99.90;;;;;;4827389;29;20095;-82
2023/09/30 04:27:47;;;;;;;6.22;3.00;;;12.40;99.90;;;;;;4827463;29;20495;-80
2023/09/30 04:30:15;;;;;;;7.72;2.78;;;12.40;99.90;;;;;;4795978;29;20046;-81
2023/09/30 04:32:40;;;;;;;11.75;3.45;;;12.40;99.90;;;;;;4840004;29;20047;-80
2023/09/30 04:35:10;;;;;;;10.77;3.15;;;12.40;99.90;;;;;;4825011;29;20049;-81
2023/09/30 04:37:36;;;;;;;12.30;4.43;;;12.30;99.90;;;;;;4812644;29;20047;-80
2023/09/30 04:40:07;;;;;;;7.60;3.53;;;12.30;99.90;;;;;;4797148;29;20062;-81
2023/09/30 04:42:36;;;;;;;16.25;4.43;;;12.30;99.90;;;;;;4839396;29;20120;-83
2023/09/30 04:45:06;;;;;;;13.13;4.55;;;13.40;99.90;;;;;;4824797;29;20058;-82
2023/09/30 04:47:32;;;;;;;10.35;4.18;;;12.30;99.90;;;;;;4812628;29;20050;-82
2023/09/30 04:49:58;;;;;;;19.92;4.72;;;12.20;99.90;;;;;;4796872;29;20057;-83
2023/09/30 04:52:27;;;;;;;12.35;4.85;;;12.20;99.90;;;;;;4823588;29;20053;-81
2023/09/30 04:54:59;;;;;;;8.27;4.60;;;12.30;99.90;;;;;;4839474;29;20051;-81
2023/09/30 04:57:34;;;;;;;15.77;4.63;;;12.20;99.90;;;;;;4812106;29;20038;-81
2023/09/30 05:00:00;;;;;;;8.57;4.25;;;12.20;99.90;;;;;;4812435;29;20047;-81
2023/09/30 05:02:28;;;;;;;7.70;4.43;;;12.20;99.90;;;;;;4812869;29;20476;-80
2023/09/30 05:04:54;;;;;;;11.13;4.30;;;12.20;99.90;;;;;;4827000;29;20572;-81
2023/09/30 05:07:22;;;;;;;14.68;5.28;;;12.20;99.90;;;;;;4827074;29;20138;-80
2023/09/30 05:09:48;;;;;;;11.68;4.75;;;12.20;99.90;;;;;;4826967;29;20047;-80
2023/09/30 05:12:16;;;;;;;11.23;4.90;;;12.20;99.90;;;;;;4794876;29;20054;-80
2023/09/30 05:14:42;;;;;;;13.30;5.13;;;12.20;99.90;;;;;;4824398;29;20138;-81
2023/09/30 05:17:12;;;;;;;11.93;5.63;;;12.20;99.90;;;;;;4825177;29;20051;-82
2023/09/30 05:19:39;;;;;;;12.10;5.15;;;12.20;99.90;;;;;;4826826;29;20480;-80
2023/09/30 05:22:05;;;;;;;13.75;5.43;;;12.20;99.90;;;;;;4812038;29;20079;-80
2023/09/30 05:24:31;;;;;;;10.75;5.60;;;12.20;99.90;;;;;;4792981;29;20535;-80
2023/09/30 05:26:57;;;;;;;16.45;5.47;;;12.20;99.90;;;;;;4823719;29;20046;-82
2023/09/30 05:29:28;;;;;;;12.93;6.15;;;12.10;99.90;;;;;;4827002;29;20053;-84
2023/09/30 05:31:53;;;;;;;15.80;5.65;;;12.10;99.90;;;;;;4826541;29;20057;-80
2023/09/30 05:34:19;;;;;;;12.70;5.63;;;13.30;99.90;;;;;;4824569;29;20407;-81
2023/09/30 05:36:44;;;;;;;11.85;5.35;;;12.50;99.90;;;;;;4839006;29;20490;-82
2023/09/30 05:39:10;;;;;;;16.80;5.93;;;12.10;99.90;;;;;;4840194;29;20039;-82
2023/09/30 05:41:37;;;;;;;13.30;5.97;;;12.90;99.90;;;;;;4826908;29;20043;-83
2023/09/30 05:44:03;;;;;;;15.90;6.32;;;12.10;99.90;;;;;;4796426;29;20047;-84
2023/09/30 05:46:32;;;;;;;16.88;6.13;;;12.10;99.90;;;;;;4807390;29;20185;-81
2023/09/30 05:48:58;;;;;;;12.80;5.65;;;12.00;99.90;;;;;;4823348;29;20094;-83
2023/09/30 05:51:23;;;;;;;16.70;6.63;;;12.00;99.90;;;;;;4826558;29;20121;-82
2023/09/30 05:53:50;;;;;;;11.43;5.85;;;12.00;99.90;;;;;;4826034;29;20414;-81
2023/09/30 05:56:16;;;;;;;14.80;5.22;;;12.00;99.90;;;;;;4827196;29;20114;-82
2023/09/30 05:58:42;;;;;;;14.90;5.75;;;12.90;99.90;;;;;;4824167;29;20505;-80
2023/09/30 06:01:11;;;;;;;15.73;6.45;;;12.00;99.90;;;;;;4809234;29;20047;-81
2023/09/30 06:03:40;;;;;;;15.85;6.40;;;11.90;99.90;;;;;;4826393;29;20042;-82
2023/09/30 06:06:13;;;;;;;16.27;7.03;;;13.60;99.90;;;;;;4795979;29;20054;-81
2023/09/30 06:08:39;;;;;;;19.17;7.55;;;11.90;99.90;;;;;;4823565;29;20047;-81
2023/09/30 06:11:05;;;;;;;13.63;6.32;;;11.90;99.90;;;;;;4839039;29;20068;-81
2023/09/30 06:13:33;;;;;;;15.73;6.88;;;11.90;99.90;;;;;;4825625;29;20483;-80
2023/09/30 06:15:58;;;;;;;18.33;7.05;;;13.70;99.90;;;;;;4796267;29;20057;-80
2023/09/30 06:18:24;;;;;;;19.35;6.80;;;11.90;99.90;;;;;;4823633;29;20043;-79
2023/09/30 06:20:50;;;;;;;20.20;6.80;;;11.90;99.90;;;;;;4807246;29;20192;-79
2023/09/30 06:23:16;;;;;;;15.35;7.57;;;12.40;99.90;;;;;;4825229;29;20047;-79
2023/09/30 06:25:43;;;;;;;14.07;6.97;;;11.80;99.90;;;;;;4826074;29;20078;-80
2023/09/30 06:28:09;;;;;;;12.90;6.22;;;11.90;99.90;;;;;;4809550;29;20048;-81
2023/09/30 06:30:35;;;;;;;19.90;7.72;;;12.50;99.90;;;;;;4807408;29;20124;-79
2023/09/30 06:33:01;;;;;;;14.38;6.50;;;11.90;99.90;;;;;;4792453;29;20050;-80
2023/09/30 06:35:29;;;;;;;12.82;7.25;;;11.90;99.90;;;;;;4825977;29;20083;-85
2023/09/30 06:37:55;;;;;;;15.85;7.35;;;11.90;99.90;;;;;;4826167;29;20107;-82
2023/09/30 06:40:22;;;;;;;15.10;6.95;;;11.90;99.90;;;;;;4793333;29;20046;-80
2023/09/30 06:42:47;;;;;;;15.50;7.50;;;11.90;99.90;;;;;;4836812;29;20159;-80
2023/09/30 06:45:17;;;;;;;11.20;6.40;;;11.90;99.90;;;;;;4825006;29;20043;-78
2023/09/30 06:47:44;;;;;;;17.58;7.53;;;12.00;99.90;;;;;;4826393;29;20051;-83
2023/09/30 06:50:16;;;;;;;13.68;7.40;;;12.00;99.90;;;;;;4793976;29;20066;-84
2023/09/30 06:52:45;;;;;;;19.17;8.00;;;12.00;99.90;;;;;;4806949;29;20057;-81
2023/09/30 06:55:16;;;;;;;16.83;7.78;;;12.00;99.90;;;;;;4814535;29;20058;-82
2023/09/30 06:57:45;;;;;;;;;;;12.00;99.90;;;;;;4823299;29;20412;-82
2023/09/30 07:00:13;;;;;;;19.02;8.45;;;12.10;99.90;;;;;;4839206;29;19925;-83
2023/09/30 07:02:40;;;;;;;12.27;7.68;;;12.10;99.90;;;;;;4824514;29;20527;-82
2023/09/30 07:05:08;;;;;;;20.40;8.75;;;12.10;99.90;;;;;;4810784;29;20444;-82
2023/09/30 07:07:37;;;;;;;15.52;8.00;;;12.10;99.90;;;;;;4807211;29;20047;-83
2023/09/30 07:10:06;;;;;;;17.33;8.00;;;12.10;99.90;;;;;;4837209;29;20058;-82
2023/09/30 07:12:35;;;;;;;18.08;8.15;;;12.20;99.90;;;;;;4794935;29;20571;-80
2023/09/30 07:15:02;;;;;;;16.63;8.13;;;12.20;99.90;;;;;;4810150;29;20492;-84
2023/09/30 07:17:28;;;;;;;21.08;9.27;;;12.20;99.90;;;;;;4828878;29;20061;-83
2023/09/30 07:20:00;;;;;;;20.40;8.35;;;12.30;99.90;;;;;;4844472;29;20050;-81
2023/09/30 07:22:26;;;;;;;12.93;9.15;;;12.30;99.90;;;;;;4826507;29;20463;-80
2023/09/30 07:24:52;;;;;;;22.65;9.23;;;12.30;99.90;;;;;;4794566;29;20058;-82
2023/09/30 07:27:21;;;;;;;20.33;8.93;;;12.40;99.90;;;;;;4812768;29;20058;-85
2023/09/30 07:29:51;;;;;;;23.75;10.57;;;12.40;99.90;;;;;;4828502;29;20545;-84
2023/09/30 07:32:19;;;;;;;19.23;10.68;;;12.40;99.90;;;;;;4811225;29;20069;-80
2023/09/30 07:34:48;;;;;;;22.15;10.70;;;12.50;99.90;;;;;;4810548;29;20043;-80
2023/09/30 07:37:17;;;;;;;18.25;10.32;;;12.50;99.90;;;;;;4827126;29;20118;-82
2023/09/30 07:39:43;;;;;;;15.95;9.65;;;12.60;99.90;;;;;;4798748;29;20045;-80
2023/09/30 07:42:09;;;;;;;16.40;9.65;;;12.60;99.90;;;;;;4830126;29;20055;-80
2023/09/30 07:44:37;;;;;;;17.23;10.00;;;12.70;99.90;;;;;;4810307;29;20491;-80
2023/09/30 07:47:03;;;;;;;17.85;10.75;;;12.70;99.90;;;;;;4810148;29;20081;-83
2023/09/30 07:49:30;;;;;;;18.63;10.82;;;12.80;99.90;;;;;;4825869;29;20050;-80
2023/09/30 07:51:58;;;;;;;20.17;10.68;;;12.80;99.90;;;;;;4825178;29;20410;-84
2023/09/30 07:54:23;;;;;;;16.27;9.50;;;12.80;99.90;;;;;;4827519;29;20408;-80
2023/09/30 07:56:49;;;;;;;15.32;9.85;;;12.90;99.90;;;;;;4828236;29;20061;-80
2023/09/30 07:59:17;;;;;;;21.40;9.80;;;12.90;99.90;;;;;;4812118;29;20090;-81
2023/09/30 08:01:45;;;;;;;16.70;9.40;;;13.00;99.90;;;;;;4825151;29;20055;-81
2023/09/30 08:04:12;;;;;;;20.35;9.75;;;13.00;99.90;;;;;;4826590;29;20051;-81
2023/09/30 08:06:38;;;;;;;18.13;10.43;;;13.00;99.90;;;;;;4812473;29;20058;-80
2023/09/30 08:09:09;;;;;;;15.52;9.05;;;13.10;99.90;;;;;;4813230;29;20047;-80
2023/09/30 08:11:36;;;;;;;14.77;8.73;;;13.20;99.90;;;;;;4813060;29;20099;-82
2023/09/30 08:14:06;;;;;;;17.13;10.35;;;13.40;99.90;;;;;;4827711;29;20067;-81
2023/09/30 08:16:36;;;;;;;13.55;8.90;;;13.30;99.90;;;;;;4828373;29;20050;-81
2023/09/30 08:19:03;;;;;;;19.02;9.48;;;13.30;99.90;;;;;;4797947;29;20050;-83
2023/09/30 08:21:30;;;;;;;16.05;9.02;;;13.40;99.90;;;;;;4794539;29;20055;-81
2023/09/30 08:23:56;;;;;;;19.65;8.32;;;13.50;99.90;;;;;;4824928;29;20388;-79
2023/09/30 08:26:22;;;;;;;15.20;8.52;;;13.50;99.90;;;;;;4826366;29;20500;-81
2023/09/30 08:28:48;;;;;;;15.55;8.50;;;13.60;99.90;;;;;;4842421;29;20423;-80
2023/09/30 08:31:14;;;;;;;20.30;9.30;;;13.80;99.90;;;;;;4797477;29;20057;-81
2023/09/30 08:33:43;;;;;;;16.35;9.57;;;13.70;99.90;;;;;;4824516;29;20043;-79
2023/09/30 08:36:09;;;;;;;22.70;9.88;;;13.80;99.90;;;;;;4824344;29;20038;-81
2023/09/30 08:38:40;;;;;;;15.82;9.75;;;13.80;99.90;;;;;;4813154;29;20038;-82
2023/09/30 08:41:07;;;;;;;20.05;8.75;;;13.90;99.90;;;;;;4797196;29;20046;-81
2023/09/30 08:43:38;;;;;;;20.25;9.80;;;14.20;99.90;;;;;;4798140;29;20133;-83
2023/09/30 08:46:04;;;;;;;16.63;9.88;;;14.00;99.90;;;;;;4828128;29;20035;-81
2023/09/30 08:48:32;;;;;;;17.30;8.98;;;14.10;99.90;;;;;;4827286;29;20035;-79
2023/09/30 08:50:59;;;;;;;19.80;9.80;;;14.10;99.90;;;;;;4798249;29;20084;-80
2023/09/30 08:53:26;;;;;;;20.92;9.88;;;14.10;99.90;;;;;;4795036;29;20782;-82
2023/09/30 08:55:55;;;;;;;17.08;8.95;;;14.20;99.90;;;;;;4823320;29;20041;-82
2023/09/30 08:58:26;;;;;;;15.30;8.05;;;14.30;99.90;;;;;;4826122;29;20125;-81
2023/09/30 09:00:52;;;;;;;19.98;9.63;;;14.30;99.90;;;;;;4827275;29;20098;-80
2023/09/30 09:03:19;;;;;;;17.55;8.30;;;14.50;99.90;;;;;;4796786;29;20069;-80
2023/09/30 09:05:45;;;;;;;17.90;8.40;;;14.50;99.90;;;;;;4797078;29;20054;-82
2023/09/30 09:08:11;;;;;;;19.67;8.18;;;14.50;99.90;;;;;;4811769;29;20046;-81
2023/09/30 09:10:57;;;;;;;18.67;7.65;;;14.60;99.90;;;;;;4823565;29;20053;-81
2023/09/30 09:13:24;;;;;;;15.82;7.75;;;14.70;99.90;;;;;;4841208;29;20146;-82
2023/09/30 09:16:05;;;;;;;16.02;6.93;;;14.80;99.90;;;;;;4796989;29;20481;-80
2023/09/30 09:18:35;;;;;;;15.95;6.50;;;14.80;99.90;;;;;;4825366;29;20388;-78
2023/09/30 09:21:15;;;;;;;14.82;5.90;;;14.90;99.90;;;;;;4824093;29;20055;-80
2023/09/30 09:23:46;;;;;;;12.23;5.57;;;15.00;99.90;;;;;;4824364;29;20042;-80
2023/09/30 09:26:30;;;;;;;14.50;6.82;;;15.10;99.90;;;;;;4825468;29;20635;-80
2023/09/30 09:29:01;;;;;;;12.20;6.23;;;15.20;99.90;;;;;;4829171;29;20046;-81
2023/09/30 09:31:28;;;;;;;11.90;6.95;;;15.20;99.90;;;;;;4816622;29;20065;-83
2023/09/30 09:33:54;;;;;;;11.63;5.80;;;15.30;99.90;;;;;;4839171;29;20042;-81
2023/09/30 09:36:20;;;;;;;13.25;5.22;;;15.30;99.90;;;;;;4825609;29;20384;-81
2023/09/30 09:38:53;;;;;;;15.05;4.85;;;15.50;99.90;;;;;;4825746;29;20135;-80
2023/09/30 09:41:20;;;;;;;12.70;5.32;;;15.50;99.90;;;;;;4810783;29;20050;-82
2023/09/30 09:43:49;;;;;;;12.73;4.00;;;15.50;99.90;;;;;;4823417;29;20046;-80
2023/09/30 09:46:16;;;;;;;12.80;4.32;;;15.60;99.90;;;;;;4823284;29;20078;-80
2023/09/30 09:48:47;;;;;;;10.30;3.88;;;15.70;99.90;;;;;;4823282;29;20133;-81
2023/09/30 09:51:14;;;;;;;13.85;4.00;;;15.80;99.90;;;;;;4824089;29;20481;-81
2023/09/30 09:53:41;;;;;;;11.70;3.95;;;15.80;99.90;;;;;;4796146;29;20468;-78
2023/09/30 09:56:12;;;;;;;9.23;3.17;;;15.90;99.90;;;;;;4796425;29;20121;-80
2023/09/30 09:58:41;;;;;;;11.90;4.03;;;16.00;99.90;;;;;;4818407;29;20093;-80
2023/09/30 10:01:06;;;;;;;10.20;3.63;;;16.10;99.90;;;;;;4826881;29;20123;-79
2023/09/30 10:03:32;;;;;;;14.02;3.80;;;16.10;99.90;;;;;;4796601;29;20495;-80
2023/09/30 10:05:59;;;;;;;9.93;3.15;;;16.20;99.90;;;;;;4811986;29;20034;-81
2023/09/30 10:08:35;;;;;;;12.80;3.35;;;16.40;99.90;;;;;;4809961;29;20373;-79
2023/09/30 10:11:01;;;;;;;13.88;3.33;;;16.30;99.90;;;;;;4807846;29;20050;-80
2023/09/30 10:13:53;;;;;;;11.80;2.58;;;16.40;99.90;;;;;;4840148;29;20115;-80
2023/09/30 10:16:37;;;;;;;14.15;2.72;;;16.40;99.90;;;;;;4795290;29;20046;-83
2023/09/30 10:19:10;;;;;;;11.00;2.63;;;16.40;99.90;;;;;;4823561;29;20054;-80
2023/09/30 10:21:36;;;;;;;11.40;3.00;;;16.50;99.90;;;;;;4810819;29;20039;-82
2023/09/30 10:24:23;;;;;;;9.63;3.28;;;16.40;99.90;;;;;;4826606;29;20054;-80
2023/09/30 10:27:34;;;;;;;13.15;2.35;;;16.40;99.90;;;;;;4812416;29;20043;-80
2023/09/30 10:30:28;;;;;;;8.68;2.22;;;16.30;99.90;;;;;;4823760;29;20118;-81
2023/09/30 10:32:56;;;;;;;8.95;1.48;;;16.30;99.90;;;;;;4817791;29;20062;-81
2023/09/30 10:35:31;;;;;;;7.40;1.35;;;16.30;99.90;;;;;;4825727;29;20051;-80
2023/09/30 10:38:22;;;;;;;9.48;1.75;;;16.30;99.90;;;;;;4841187;29;20492;-81
2023/09/30 10:40:50;;;;;;;8.00;1.83;;;16.20;99.90;;;;;;4821921;29;20082;-81
2023/09/30 10:43:33;;;;;;;9.98;2.08;;;16.20;99.90;;;;;;4823703;29;20096;-81
2023/09/30 10:46:00;;;;;;;12.23;2.22;;;16.90;99.90;;;;;;4818747;29;20448;-81
2023/09/30 10:48:28;;;;;;;9.13;2.10;;;16.20;99.90;;;;;;4816812;29;20065;-82
2023/09/30 10:50:56;;;;;;;12.05;2.00;;;16.30;99.90;;;;;;4825679;29;20055;-81
2023/09/30 10:53:22;;;;;;;7.82;1.48;;;16.30;99.90;;;;;;4843069;29;20047;-81
2023/09/30 10:55:55;;;;;;;8.05;1.80;;;16.50;99.90;;;;;;4798792;29;20046;-81
2023/09/30 10:58:21;;;;;;;5.45;1.50;;;16.60;99.90;;;;;;4844456;29;20530;-80
2023/09/30 11:00:54;;;;;;;9.07;1.88;;;16.70;99.90;;;;;;4826209;29;20042;-81
2023/09/30 11:03:21;;;;;;;10.93;1.67;;;16.90;99.90;;;;;;4826501;29;20049;-82
2023/09/30 11:05:54;;;;;;;8.10;1.75;;;17.00;99.90;;;;;;4798932;29;20042;-85
2023/09/30 11:08:24;;;;;;;9.13;2.00;;;17.10;99.90;;;;;;4799073;29;20165;-82
2023/09/30 11:10:51;;;;;;;8.13;1.55;;;17.20;99.90;;;;;;4826018;29;20069;-82
2023/09/30 11:13:18;;;;;;;7.68;1.73;;;17.20;99.90;;;;;;4831331;29;20199;-81
2023/09/30 11:15:44;;;;;;;8.18;1.20;;;17.30;99.90;;;;;;4798594;29;20099;-78
2023/09/30 11:18:15;;;;;;;8.07;1.92;;;17.50;99.90;;;;;;4844956;29;20567;-80
2023/09/30 11:20:42;;;;;;;6.53;1.60;;;17.20;99.90;;;;;;4825947;29;20046;-81
2023/09/30 11:23:08;;;;;;;5.85;1.70;;;17.10;99.90;;;;;;4825679;29;20046;-81
2023/09/30 11:25:39;;;;;;;7.40;1.38;;;17.10;99.90;;;;;;4828981;29;20126;-80
2023/09/30 11:28:18;;;;;;;8.10;2.03;;;17.00;99.90;;;;;;4830525;29;20082;-82
2023/09/30 11:31:02;;;;;;;13.15;2.08;;;17.00;99.90;;;;;;4825685;29;20082;-80
2023/09/30 11:33:28;;;;;;;9.70;2.03;;;16.90;99.90;;;;;;4827753;29;20053;-82
2023/09/30 11:36:06;;;;;;;6.80;1.65;;;16.80;99.90;;;;;;4828773;29;20050;-80
2023/09/30 11:38:36;;;;;;;9.38;1.42;;;16.70;99.90;;;;;;4844123;29;20086;-80
2023/09/30 11:41:06;;;;;;;9.40;2.00;;;16.70;99.90;;;;;;4821364;29;20118;-82
2023/09/30 11:43:34;;;;;;;10.98;2.00;;;16.60;99.90;;;;;;4821254;29;20087;-82
2023/09/30 11:46:10;;;;;;;12.63;2.17;;;16.60;99.90;;;;;;4828266;29;20046;-80
2023/09/30 11:48:56;;;;;;;10.73;1.60;;;16.60;99.90;;;;;;4795982;29;20488;-80
2023/09/30 11:51:26;;;;;;;10.57;1.90;;;16.60;99.90;;;;;;4826282;29;20141;-82
2023/09/30 11:53:54;;;;;;;8.20;1.88;;;16.80;99.90;;;;;;4828552;29;20206;-80
2023/09/30 11:56:22;;;;;;;6.32;1.00;;;17.10;99.90;;;;;;4827868;29;20066;-80
2023/09/30 11:58:48;;;;;;;13.68;1.85;;;17.20;99.90;;;;;;4824427;29;20046;-80
2023/09/30 12:01:16;;;;;;;4.93;1.65;;;17.30;99.90;;;;;;4825142;29;20038;-80
2023/09/30 12:03:42;;;;;;;4.95;1.45;;;17.40;99.90;;;;;;4828776;29;20042;-80
2023/09/30 12:06:08;;;;;;;5.75;1.52;;;17.60;99.90;;;;;;4812468;29;20388;-82
2023/09/30 12:08:33;;;;;;;7.40;1.60;;;17.70;99.90;;;;;;4790421;29;20047;-81
2023/09/30 12:10:59;;;;;;;5.75;1.35;;;17.80;99.90;;;;;;4828858;29;20050;-80
2023/09/30 12:13:26;;;;;;;4.93;1.45;;;18.00;99.90;;;;;;4827057;29;20087;-81
2023/09/30 12:15:52;;;;;;;7.55;1.65;;;18.10;99.90;;;;;;4840759;29;20046;-82
2023/09/30 12:18:23;;;;;;;4.78;1.30;;;18.20;99.90;;;;;;4826554;29;20506;-84
2023/09/30 12:20:50;;;;;;;8.20;1.52;;;18.20;99.90;;;;;;4797775;29;20080;-81
2023/09/30 12:23:17;;;;;;;5.95;2.03;;;17.10;99.90;;;;;;4828892;29;20042;-83
2023/09/30 12:25:43;;;;;;;9.10;1.88;;;18.10;99.90;;;;;;4825528;29;20514;-85
2023/09/30 12:28:09;;;;;;;5.82;1.67;;;18.10;99.90;;;;;;4794549;29;20134;-86
2023/09/30 12:30:39;;;;;;;9.07;1.75;;;18.10;99.90;;;;;;4827560;29;20056;-86
2023/09/30 12:33:06;;;;;;;11.90;2.13;;;18.00;99.90;;;;;;4812975;29;20171;-82
2023/09/30 12:35:32;;;;;;;7.70;1.75;;;18.00;99.90;;;;;;4811223;29;20042;-81
2023/09/30 12:37:58;;;;;;;5.03;1.30;;;18.00;99.90;;;;;;4825108;29;20045;-84
2023/09/30 12:40:24;;;;;;;5.97;1.55;;;18.00;99.90;;;;;;4795036;29;20039;-80
2023/09/30 12:42:50;;;;;;;5.80;1.52;;;18.00;99.90;;;;;;4797718;29;20046;-82
2023/09/30 12:45:18;;;;;;;8.43;2.20;;;18.00;99.90;;;;;;4843276;29;20046;-81